createdAt,value
2019-04-30T00:02:17.446Z,20.10
2019-04-30T00:04:55.398Z,20.10
2019-04-30T00:07:30.968Z,20.10
2019-04-30T00:10:06.104Z,20.10
2019-04-30T00:12:45.735Z,20.10
2019-04-30T00:15:19.454Z,20.10
2019-04-30T00:17:57.473Z,20.10
2019-04-30T00:20:29.980Z,20.10
2019-04-30T00:23:05.042Z,20.10
2019-04-30T00:25:35.541Z,20.10
2019-04-30T00:28:17.462Z,20.00
2019-04-30T00:30:48.027Z,20.10
2019-04-30T00:33:22.224Z,20.00
2019-04-30T00:35:55.172Z,20.00
2019-04-30T00:38:29.601Z,20.00
2019-04-30T00:41:06.210Z,20.00
2019-04-30T00:43:49.278Z,20.00
2019-04-30T00:46:29.190Z,20.10
2019-04-30T00:49:03.135Z,20.00
2019-04-30T00:51:29.821Z,20.00
2019-04-30T00:54:02.073Z,20.00
2019-04-30T00:56:32.806Z,20.00
2019-04-30T00:59:07.069Z,20.00
2019-04-30T01:01:56.346Z,20.00
2019-04-30T01:04:39.210Z,20.00
2019-04-30T01:07:15.520Z,20.00
2019-04-30T01:09:49.693Z,19.90
2019-04-30T01:12:27.572Z,20.00
2019-04-30T01:14:51.295Z,19.90
2019-04-30T01:17:23.149Z,19.90
2019-04-30T01:19:55.718Z,19.90
2019-04-30T01:22:32.785Z,19.90
2019-04-30T01:25:08.022Z,19.90
2019-04-30T01:27:34.568Z,19.90
2019-04-30T01:30:13.381Z,19.90
2019-04-30T01:32:45.262Z,19.90
2019-04-30T01:35:23.971Z,19.90
2019-04-30T01:37:59.560Z,19.90
2019-04-30T01:40:31.109Z,19.90
2019-04-30T01:43:01.831Z,19.90
2019-04-30T01:45:32.220Z,19.90
2019-04-30T01:48:08.826Z,19.90
2019-04-30T01:50:42.043Z,19.90
2019-04-30T01:53:13.294Z,19.90
2019-04-30T01:56:11.283Z,19.90
2019-04-30T01:58:49.479Z,19.90
2019-04-30T02:01:22.166Z,19.90
2019-04-30T02:03:53.975Z,19.90
2019-04-30T02:06:24.846Z,19.80
2019-04-30T02:08:59.637Z,19.80
2019-04-30T02:11:30.331Z,19.80
2019-04-30T02:14:01.011Z,19.80
2019-04-30T02:16:39.450Z,19.80
2019-04-30T02:19:11.290Z,19.80
2019-04-30T02:21:44.429Z,19.80
2019-04-30T02:24:15.107Z,19.80
2019-04-30T02:26:59.457Z,19.80
2019-04-30T02:29:30.083Z,19.80
2019-04-30T02:32:00.744Z,19.80
2019-04-30T02:34:44.064Z,19.80
2019-04-30T02:37:21.272Z,19.70
2019-04-30T02:39:52.997Z,19.80
2019-04-30T02:42:23.932Z,19.80
2019-04-30T02:45:03.416Z,19.70
2019-04-30T02:47:35.971Z,19.80
2019-04-30T02:50:15.254Z,19.80
2019-04-30T02:52:41.423Z,19.80
2019-04-30T02:55:14.828Z,19.70
2019-04-30T02:57:49.862Z,19.70
2019-04-30T03:00:23.429Z,19.70
2019-04-30T03:02:53.870Z,19.70
2019-04-30T03:05:24.330Z,19.70
2019-04-30T03:08:00.467Z,19.70
2019-04-30T03:10:32.762Z,19.70
2019-04-30T03:13:03.106Z,19.70
2019-04-30T03:15:39.431Z,19.70
2019-04-30T03:18:19.686Z,19.70
2019-04-30T03:21:02.605Z,19.70
2019-04-30T03:23:32.981Z,19.70
2019-04-30T03:26:05.188Z,19.70
2019-04-30T03:28:39.688Z,19.70
2019-04-30T03:31:13.884Z,19.70
2019-04-30T03:33:44.328Z,19.70
2019-04-30T03:36:21.535Z,19.70
2019-04-30T03:38:50.028Z,19.70
2019-04-30T03:41:20.963Z,19.70
2019-04-30T03:43:55.870Z,19.60
2019-04-30T03:46:30.005Z,19.70
2019-04-30T03:49:01.622Z,19.60
2019-04-30T03:51:32.600Z,19.60
2019-04-30T03:54:04.830Z,19.60
2019-04-30T03:56:35.501Z,19.60
2019-04-30T03:59:10.570Z,19.60
2019-04-30T04:01:55.930Z,19.60
2019-04-30T04:04:39.504Z,19.60
2019-04-30T04:07:36.766Z,19.60
2019-04-30T04:10:19.519Z,19.60
2019-04-30T04:12:50.870Z,19.60
2019-04-30T04:15:24.989Z,19.60
2019-04-30T04:17:55.651Z,19.60
2019-04-30T04:20:26.178Z,19.60
2019-04-30T04:23:04.287Z,19.60
2019-04-30T04:25:35.050Z,19.60
2019-04-30T04:28:10.105Z,19.60
2019-04-30T04:30:43.031Z,19.60
2019-04-30T04:33:13.291Z,19.60
2019-04-30T04:35:43.842Z,19.60
2019-04-30T04:38:20.483Z,19.60
2019-04-30T04:40:52.275Z,19.60
2019-04-30T04:43:33.167Z,19.60
2019-04-30T04:46:04.904Z,19.60
2019-04-30T04:48:35.927Z,19.60
2019-04-30T04:51:06.452Z,19.60
2019-04-30T04:53:39.998Z,19.60
2019-04-30T04:56:14.069Z,19.60
2019-04-30T04:58:44.941Z,19.70
2019-04-30T05:01:20.393Z,19.70
2019-04-30T05:03:54.470Z,19.60
2019-04-30T05:06:29.626Z,19.60
2019-04-30T05:09:01.706Z,19.70
2019-04-30T05:11:32.969Z,19.70
2019-04-30T05:14:10.935Z,19.70
2019-04-30T05:16:41.758Z,19.70
2019-04-30T05:19:18.519Z,19.70
2019-04-30T05:21:55.337Z,19.70
2019-04-30T05:24:32.030Z,19.70
2019-04-30T05:27:06.025Z,19.70
2019-04-30T05:29:41.372Z,19.70
2019-04-30T05:32:12.615Z,19.70
2019-04-30T05:34:49.561Z,19.70
2019-04-30T05:37:18.713Z,19.70
2019-04-30T05:39:54.949Z,19.80
2019-04-30T05:42:28.621Z,19.70
2019-04-30T05:45:00.002Z,19.70
2019-04-30T05:47:34.525Z,19.80
2019-04-30T05:50:10.728Z,19.80
2019-04-30T05:52:41.734Z,19.80
2019-04-30T05:55:19.607Z,19.80
2019-04-30T05:57:56.197Z,19.80
2019-04-30T06:00:24.032Z,19.80
2019-04-30T06:02:57.110Z,19.80
2019-04-30T06:05:28.615Z,19.80
2019-04-30T06:08:03.390Z,19.80
2019-04-30T06:10:59.745Z,19.80
2019-04-30T06:13:49.238Z,19.90
2019-04-30T06:16:22.398Z,19.80
2019-04-30T06:18:53.029Z,19.90
2019-04-30T06:21:24.782Z,19.90
2019-04-30T06:23:56.690Z,19.90
2019-04-30T06:26:29.592Z,19.90
2019-04-30T06:29:00.509Z,19.90
2019-04-30T06:31:37.253Z,19.90
2019-04-30T06:34:06.238Z,19.90
2019-04-30T06:36:39.440Z,19.90
2019-04-30T06:39:18.836Z,19.90
2019-04-30T06:41:51.210Z,20.00
2019-04-30T06:44:34.761Z,19.90
2019-04-30T06:46:54.989Z,19.90
2019-04-30T06:49:30.153Z,20.00
2019-04-30T06:52:02.815Z,20.00
2019-04-30T06:54:36.820Z,20.00
2019-04-30T06:57:09.765Z,20.00
2019-04-30T06:59:42.757Z,20.00
2019-04-30T07:02:13.007Z,20.00
2019-04-30T07:04:43.963Z,19.90
2019-04-30T07:07:19.307Z,19.80
2019-04-30T07:10:10.109Z,19.60
2019-04-30T07:12:58.973Z,19.40
2019-04-30T07:15:31.862Z,19.30
2019-04-30T07:18:05.114Z,19.20
2019-04-30T07:20:36.103Z,19.20
2019-04-30T07:23:06.394Z,19.20
2019-04-30T07:25:39.543Z,19.20
2019-04-30T07:28:19.067Z,19.10
2019-04-30T07:31:07.538Z,19.10
2019-04-30T07:33:29.649Z,19.10
2019-04-30T07:36:05.929Z,19.20
2019-04-30T07:38:49.583Z,19.20
2019-04-30T07:41:18.988Z,19.20
2019-04-30T07:43:49.493Z,19.20
2019-04-30T07:46:26.724Z,19.20
2019-04-30T07:49:00.226Z,19.20
2019-04-30T07:51:38.111Z,19.20
2019-04-30T07:54:09.347Z,19.20
2019-04-30T07:56:45.982Z,19.30
2019-04-30T07:59:17.124Z,19.30
2019-04-30T08:04:51.467Z,19.40
2019-04-30T08:07:29.829Z,19.40
2019-04-30T08:09:38.268Z,19.30
2019-04-30T08:10:03.633Z,19.50
2019-04-30T08:12:42.610Z,19.60
2019-04-30T08:15:10.974Z,19.70
2019-04-30T08:17:43.999Z,19.80
2019-04-30T08:20:19.620Z,19.80
2019-04-30T08:22:51.082Z,19.90
2019-04-30T08:25:23.327Z,20.00
2019-04-30T08:28:01.448Z,20.00
2019-04-30T08:30:39.018Z,20.10
2019-04-30T08:33:14.082Z,20.10
2019-04-30T08:35:44.693Z,20.10
2019-04-30T08:38:15.449Z,20.20
2019-04-30T08:40:57.638Z,20.20
2019-04-30T08:43:26.175Z,20.20
2019-04-30T08:46:04.062Z,20.30
2019-04-30T08:48:46.093Z,20.30
2019-04-30T08:51:09.942Z,20.30
2019-04-30T08:53:41.193Z,20.40
2019-04-30T08:56:22.036Z,20.40
2019-04-30T08:58:54.926Z,20.40
2019-04-30T09:01:29.375Z,20.40
2019-04-30T09:04:01.342Z,20.40
2019-04-30T09:06:33.034Z,20.50
2019-04-30T09:09:14.121Z,20.50
2019-04-30T09:11:52.920Z,20.50
2019-04-30T09:14:23.054Z,20.50
2019-04-30T09:17:02.065Z,20.60
2019-04-30T09:19:38.667Z,20.60
2019-04-30T09:22:14.631Z,20.60
2019-04-30T09:24:47.044Z,20.60
2019-04-30T09:27:22.273Z,20.60
2019-04-30T09:29:55.102Z,20.60
2019-04-30T09:32:29.095Z,20.60
2019-04-30T09:35:04.735Z,20.60
2019-04-30T09:37:34.919Z,20.60
2019-04-30T09:40:16.193Z,20.60
2019-04-30T09:42:40.406Z,20.60
2019-04-30T09:45:12.358Z,20.60
2019-04-30T09:47:42.622Z,20.60
2019-04-30T09:50:15.043Z,20.60
2019-04-30T09:52:49.668Z,20.60
2019-04-30T09:55:20.570Z,20.60
2019-04-30T09:57:53.751Z,20.60
2019-04-30T10:00:25.311Z,20.60
2019-04-30T10:02:59.777Z,20.60
2019-04-30T10:05:32.482Z,20.60
2019-04-30T10:08:04.774Z,20.60
2019-04-30T10:10:41.599Z,20.60
2019-04-30T10:13:18.366Z,20.60
2019-04-30T10:16:10.123Z,20.60
2019-04-30T10:18:43.068Z,20.60
2019-04-30T10:21:16.482Z,20.60
2019-04-30T10:23:49.927Z,20.60
2019-04-30T10:26:28.585Z,20.60
2019-04-30T10:29:05.143Z,20.60
2019-04-30T10:31:38.724Z,20.60
2019-04-30T10:34:13.674Z,20.60
2019-04-30T10:36:49.344Z,20.60
2019-04-30T10:39:22.601Z,20.70
2019-04-30T10:41:57.961Z,20.70
2019-04-30T10:44:29.846Z,20.70
2019-04-30T10:47:02.658Z,20.70
2019-04-30T10:49:35.576Z,20.70
2019-04-30T10:52:10.117Z,20.70
2019-04-30T10:54:43.241Z,20.70
2019-04-30T10:57:15.229Z,20.70
2019-04-30T10:59:45.710Z,20.70
2019-04-30T11:02:16.865Z,20.70
2019-04-30T11:04:47.286Z,20.70
2019-04-30T11:07:29.700Z,20.70
2019-04-30T11:10:00.209Z,20.70
2019-04-30T11:12:31.473Z,20.70
2019-04-30T11:15:06.214Z,20.70
2019-04-30T11:17:41.202Z,20.70
2019-04-30T11:20:14.867Z,20.70
2019-04-30T11:22:54.704Z,20.70
2019-04-30T11:25:25.545Z,20.70
2019-04-30T11:28:03.902Z,20.70
2019-04-30T11:30:36.718Z,20.70
2019-04-30T11:33:08.471Z,20.70
2019-04-30T11:35:39.512Z,20.70
2019-04-30T11:38:12.591Z,20.70
2019-04-30T11:40:48.512Z,20.70
2019-04-30T11:43:26.193Z,20.60
2019-04-30T11:46:28.786Z,20.60
2019-04-30T11:49:04.679Z,20.60
2019-04-30T11:51:39.238Z,20.70
2019-04-30T11:54:12.643Z,20.70
2019-04-30T11:56:44.265Z,20.70
2019-04-30T11:59:22.560Z,20.80
2019-04-30T12:02:03.078Z,20.80
2019-04-30T12:04:39.110Z,20.80
2019-04-30T12:07:40.302Z,20.70
2019-04-30T12:10:32.039Z,20.70
2019-04-30T12:13:03.531Z,20.70
2019-04-30T12:15:36.781Z,20.70
2019-04-30T12:18:09.762Z,20.70
2019-04-30T12:20:40.013Z,20.70
2019-04-30T12:23:14.237Z,20.70
2019-04-30T12:25:49.290Z,20.70
2019-04-30T12:28:24.216Z,20.70
2019-04-30T12:30:58.797Z,20.70
2019-04-30T12:33:29.572Z,20.80
2019-04-30T12:36:03.007Z,20.70
2019-04-30T12:38:33.807Z,20.80
2019-04-30T12:41:08.755Z,20.80
2019-04-30T12:43:41.036Z,20.80
2019-04-30T12:46:19.034Z,20.80
2019-04-30T12:49:24.395Z,20.80
2019-04-30T12:52:16.006Z,20.90
2019-04-30T12:55:15.218Z,20.80
2019-04-30T12:57:56.464Z,20.80
2019-04-30T13:00:19.504Z,20.80
2019-04-30T13:02:53.101Z,20.80
2019-04-30T13:05:27.029Z,20.80
2019-04-30T13:08:00.714Z,20.80
2019-04-30T13:10:37.550Z,20.80
2019-04-30T13:13:11.929Z,20.80
2019-04-30T13:15:42.700Z,20.80
2019-04-30T13:18:14.013Z,20.80
2019-04-30T13:20:45.536Z,20.80
2019-04-30T13:23:21.719Z,20.80
2019-04-30T13:25:53.899Z,20.80
2019-04-30T13:28:27.406Z,20.80
2019-04-30T13:31:01.279Z,20.90
2019-04-30T13:33:51.283Z,20.90
2019-04-30T13:36:24.374Z,20.90
2019-04-30T13:39:23.466Z,20.90
2019-04-30T13:42:14.555Z,20.90
2019-04-30T13:44:39.394Z,20.90
2019-04-30T13:47:11.657Z,20.90
2019-04-30T13:49:56.314Z,20.90
2019-04-30T13:52:30.942Z,20.90
2019-04-30T13:55:02.989Z,21.00
2019-04-30T13:57:36.618Z,21.00
2019-04-30T14:00:09.811Z,21.00
2019-04-30T14:02:45.670Z,21.00
2019-04-30T14:05:18.844Z,21.00
2019-04-30T14:08:09.387Z,21.00
2019-04-30T14:10:44.422Z,21.10
2019-04-30T14:13:14.962Z,21.10
2019-04-30T14:15:47.669Z,21.10
2019-04-30T14:18:28.538Z,21.10
2019-04-30T14:20:51.917Z,21.10
2019-04-30T14:23:22.223Z,21.10
2019-04-30T14:26:00.852Z,21.10
2019-04-30T14:28:35.482Z,21.10
2019-04-30T14:31:07.887Z,21.10
2019-04-30T14:33:43.486Z,21.10
2019-04-30T14:36:14.581Z,21.20
2019-04-30T14:39:13.079Z,21.10
2019-04-30T14:41:32.477Z,21.20
2019-04-30T14:44:15.487Z,21.20
2019-04-30T14:47:11.674Z,21.20
2019-04-30T14:50:04.863Z,21.20
2019-04-30T14:52:44.419Z,21.20
2019-04-30T14:55:31.966Z,21.20
2019-04-30T14:58:15.216Z,21.20
2019-04-30T15:01:12.053Z,21.20
2019-04-30T15:03:43.306Z,21.20
2019-04-30T15:06:19.401Z,21.10
2019-04-30T15:08:54.526Z,21.10
2019-04-30T15:11:25.204Z,21.10
2019-04-30T15:14:01.919Z,21.10
2019-04-30T15:16:35.502Z,21.00
2019-04-30T15:19:06.448Z,21.00
2019-04-30T15:21:39.087Z,20.90
2019-04-30T15:24:23.273Z,20.90
2019-04-30T15:26:58.011Z,20.90
2019-04-30T15:29:31.090Z,20.90
2019-04-30T15:32:05.785Z,20.90
2019-04-30T15:34:40.859Z,20.90
2019-04-30T15:37:19.101Z,20.90
2019-04-30T15:39:43.978Z,20.80
2019-04-30T15:42:15.277Z,20.80
2019-04-30T15:44:47.184Z,20.80
2019-04-30T15:47:21.449Z,20.80
2019-04-30T15:49:54.940Z,20.70
2019-04-30T15:52:29.801Z,20.70
2019-04-30T15:55:01.891Z,20.60
2019-04-30T15:57:36.192Z,20.50
2019-04-30T16:00:10.725Z,20.50
2019-04-30T16:02:57.312Z,20.50
2019-04-30T16:05:37.697Z,20.50
2019-04-30T16:08:29.060Z,20.50
2019-04-30T16:11:27.188Z,20.50
2019-04-30T16:14:14.790Z,20.60
2019-04-30T16:17:03.455Z,20.60
2019-04-30T16:19:36.951Z,20.70
2019-04-30T16:22:15.686Z,20.70
2019-04-30T16:24:46.365Z,20.70
2019-04-30T16:27:19.213Z,20.70
2019-04-30T16:29:59.541Z,20.80
2019-04-30T16:32:29.791Z,20.80
2019-04-30T16:35:11.346Z,20.80
2019-04-30T16:37:45.281Z,20.80
2019-04-30T16:40:28.844Z,20.90
2019-04-30T16:43:01.398Z,20.90
2019-04-30T16:45:38.858Z,20.90
2019-04-30T16:48:11.924Z,20.90
2019-04-30T16:50:48.888Z,20.90
2019-04-30T16:53:22.150Z,20.90
2019-04-30T16:55:53.291Z,20.90
2019-04-30T16:58:24.743Z,20.90
2019-04-30T17:00:59.808Z,20.90
2019-04-30T17:03:38.820Z,20.80
2019-04-30T17:06:16.317Z,20.80
2019-04-30T17:08:53.896Z,20.80
2019-04-30T17:11:42.809Z,20.80
2019-04-30T17:14:17.887Z,20.80
2019-04-30T17:16:55.376Z,20.80
2019-04-30T17:19:26.113Z,20.80
2019-04-30T17:21:57.619Z,20.80
2019-04-30T17:24:31.799Z,20.70
2019-04-30T17:27:02.643Z,20.70
2019-04-30T17:29:35.644Z,20.70
2019-04-30T17:32:10.621Z,20.70
2019-04-30T17:34:42.663Z,20.70
2019-04-30T17:37:13.479Z,20.60
2019-04-30T17:39:45.489Z,20.60
2019-04-30T17:42:19.622Z,20.60
2019-04-30T17:44:56.795Z,20.60
2019-04-30T17:47:25.286Z,20.60
2019-04-30T17:50:03.519Z,20.60
2019-04-30T17:52:35.970Z,20.60
2019-04-30T17:55:14.139Z,20.60
2019-04-30T17:57:44.904Z,20.60
2019-04-30T18:00:22.311Z,20.60
2019-04-30T18:02:52.132Z,20.60
2019-04-30T18:05:29.249Z,20.60
2019-04-30T18:08:00.887Z,20.50
2019-04-30T18:10:34.784Z,20.50
2019-04-30T18:13:05.607Z,20.50
2019-04-30T18:15:37.665Z,20.50
2019-04-30T18:18:24.923Z,20.50
2019-04-30T18:21:12.413Z,20.50
2019-04-30T18:24:10.613Z,20.50
2019-04-30T18:26:49.415Z,20.50
2019-04-30T18:29:21.179Z,20.50
2019-04-30T18:31:55.413Z,20.50
2019-04-30T18:34:29.232Z,20.50
2019-04-30T18:37:00.488Z,20.50
2019-04-30T18:39:32.899Z,20.50
2019-04-30T18:42:11.156Z,20.50
2019-04-30T18:44:41.743Z,20.40
2019-04-30T18:47:16.622Z,20.40
2019-04-30T18:49:49.394Z,20.40
2019-04-30T18:52:21.183Z,20.40
2019-04-30T18:54:53.303Z,20.40
2019-04-30T18:57:24.646Z,20.40
2019-04-30T18:59:59.121Z,20.40
2019-04-30T19:02:31.188Z,20.40
2019-04-30T19:05:05.931Z,20.40
2019-04-30T19:07:45.134Z,20.40
2019-04-30T19:10:26.575Z,20.40
2019-04-30T19:13:14.251Z,20.40
2019-04-30T19:16:18.747Z,20.40
2019-04-30T19:18:44.871Z,20.40
2019-04-30T19:21:15.166Z,20.40
2019-04-30T19:23:51.754Z,20.40
2019-04-30T19:26:29.148Z,20.40
2019-04-30T19:29:01.369Z,20.40
2019-04-30T19:31:32.372Z,20.40
2019-04-30T19:34:03.843Z,20.40
2019-04-30T19:36:37.800Z,20.40
2019-04-30T19:39:13.770Z,20.50
2019-04-30T19:41:48.990Z,20.50
2019-04-30T19:44:21.909Z,20.50
2019-04-30T19:46:52.949Z,20.50
2019-04-30T19:49:28.002Z,20.50
2019-04-30T19:52:08.455Z,20.50
2019-04-30T19:54:36.235Z,20.50
2019-04-30T19:57:07.596Z,20.50
2019-04-30T19:59:41.336Z,20.50
2019-04-30T20:02:13.469Z,20.50
2019-04-30T20:04:44.787Z,20.50
2019-04-30T20:07:19.513Z,20.50
2019-04-30T20:10:00.123Z,20.50
2019-04-30T20:12:29.065Z,20.50
2019-04-30T20:15:16.248Z,20.50
2019-04-30T20:17:38.999Z,20.50
2019-04-30T20:20:10.742Z,20.50
2019-04-30T20:22:41.127Z,20.50
2019-04-30T20:25:12.121Z,20.50
2019-04-30T20:27:42.631Z,20.50
2019-04-30T20:30:19.561Z,20.50
2019-04-30T20:32:56.581Z,20.50
2019-04-30T20:35:29.578Z,20.50
2019-04-30T20:38:19.440Z,20.50
2019-04-30T20:41:00.016Z,20.50
2019-04-30T20:43:28.553Z,20.50
2019-04-30T20:46:02.335Z,20.50
2019-04-30T20:48:39.288Z,20.50
2019-04-30T20:51:10.336Z,20.50
2019-04-30T20:53:41.036Z,20.50
2019-04-30T20:56:14.919Z,20.50
2019-04-30T20:58:55.641Z,20.50
2019-04-30T21:01:20.274Z,20.50
2019-04-30T21:03:54.649Z,20.50
2019-04-30T21:06:25.665Z,20.50
2019-04-30T21:09:00.758Z,20.50
2019-04-30T21:11:45.345Z,20.60
2019-04-30T21:14:19.207Z,20.50
2019-04-30T21:16:58.607Z,20.60
2019-04-30T21:19:30.741Z,20.60
2019-04-30T21:22:03.551Z,20.60
2019-04-30T21:24:40.681Z,20.60
2019-04-30T21:27:13.419Z,20.60
2019-04-30T21:29:45.228Z,20.60
2019-04-30T21:32:29.041Z,20.60
2019-04-30T21:35:18.173Z,20.60
2019-04-30T21:37:49.541Z,20.60
2019-04-30T21:40:20.434Z,20.60
2019-04-30T21:42:51.975Z,20.50
2019-04-30T21:45:25.510Z,20.50
2019-04-30T21:48:02.072Z,20.50
2019-04-30T21:50:32.802Z,20.40
2019-04-30T21:53:05.324Z,20.40
2019-04-30T21:55:37.002Z,20.40
2019-04-30T21:58:12.437Z,20.30
2019-04-30T22:01:01.065Z,20.30
2019-04-30T22:03:36.308Z,20.20
2019-04-30T22:06:08.464Z,20.20
2019-04-30T22:08:41.679Z,20.20
2019-04-30T22:11:13.601Z,20.20
2019-04-30T22:13:49.523Z,20.20
2019-04-30T22:16:20.594Z,20.10
2019-04-30T22:18:51.568Z,20.20
2019-04-30T22:21:26.263Z,20.10
2019-04-30T22:23:57.267Z,20.10
2019-04-30T22:26:30.899Z,20.10
2019-04-30T22:29:01.871Z,20.10
2019-04-30T22:31:33.855Z,20.10
2019-04-30T22:34:04.774Z,20.10
2019-04-30T22:36:44.358Z,20.00
2019-04-30T22:39:32.567Z,20.00
2019-04-30T22:42:35.910Z,20.00
2019-04-30T22:45:12.330Z,20.00
2019-04-30T22:47:42.725Z,20.00
2019-04-30T22:50:13.634Z,20.00
2019-04-30T22:52:47.086Z,19.90
2019-04-30T22:55:17.725Z,20.00
2019-04-30T22:57:52.398Z,19.90
2019-04-30T23:00:40.994Z,19.90
2019-04-30T23:03:29.685Z,19.90
2019-04-30T23:06:01.212Z,19.90
2019-04-30T23:08:35.498Z,19.90
2019-04-30T23:11:12.506Z,19.90
2019-04-30T23:13:43.653Z,19.90
2019-04-30T23:16:17.886Z,19.90
2019-04-30T23:18:52.574Z,19.90
2019-04-30T23:21:23.084Z,19.80
2019-04-30T23:23:58.554Z,19.80
2019-04-30T23:26:35.026Z,19.80
2019-04-30T23:29:06.177Z,19.80
2019-04-30T23:31:43.809Z,19.80
2019-04-30T23:34:18.067Z,19.80
2019-04-30T23:36:46.785Z,19.80
2019-04-30T23:39:17.621Z,19.80
2019-04-30T23:41:48.011Z,19.80
2019-04-30T23:44:20.623Z,19.80
2019-04-30T23:46:53.393Z,19.80
2019-04-30T23:49:24.015Z,19.80
2019-04-30T23:51:59.859Z,19.80
2019-04-30T23:54:34.202Z,19.70
2019-04-30T23:57:06.259Z,19.70
2019-04-30T23:59:36.913Z,19.70
